OIAG  Aghajari  Airport

Aghajari,, Iran

Add Bookmark
ICAO OIAG
Type Airport
Status Operational
Latitude
30° 44' 39" N
30.744400
Longitude
49° 40' 37" E
49.677200
Local (GMT +3.5 ) UTC
Sep 29, 2016 01:37 pm Sep 29, 2016 10:07
Sunrise-Sunset Local UTC
Begin Civil Twilight 05:38 am 02:08
Sunrise 06:02 am 02:32
Sunset 05:59 pm 14:29
End Civil Twilight 06:23 pm 14:53
VFR
VFR
MVFR
MVFR
IFR
IFR
LIFR
LIFR
Unknown
Unavailable

Current Weather

METAR Observed VFR
OIAG 290800Z 31014KT CAVOK 35/09 Q1009 Thu, Sep 29, 2016 @ 08:00 UTC
(2 Hours, 7 Minutes ago)
Visual Flight Rules
Wind Visibility Conditions
310° at 14 knots (26 kph) 10 km or more
  • No significant weather
Temperatures Readings Precipitation
Current Temp
35°C
95°F
Dewpoint
9°C
48°F
Humidity 20%
Altimeter 29.79" Hg
Sea Level Pressure 1,009 mb
Field Elevation
29 m
95 ft
None Recorded

Additional weather within a 92.6km radius of OIAG

Map ICAO Location
OIAM 54.4km W/SW (248°)
VFR
VFR
MVFR
MVFR
IFR
IFR
LIFR
LIFR
Unknown
Unavailable
-
-

CheckWX.com is intended as a tool to help pilots better visualize weather data. It is not intended as a substitute for an official weather briefing obtained from a Flight Service Station. CheckWX.com does not meet the FAA requirements for an official pre-flight weather briefing. Therefore, it's important that pilots still call and obtain an official FSS pre-flight weather briefing.

© 2007-2016 CheckWX.com
10:07:36 UTC